Zim Pacific — A8OZ4 — position and weather

sailwx.info

Track history (hours):
 
Tides and Currents Weather Stations Pressure Air Temp Water Temp Dewpoint Dewpoint Depression Visibility Wind Speed Wind Dir Waves Ship Positions

Zim Pacific

Last reported at 2015-Jan-21 10:29 UTC. Time now 2015-Jan-25 14:18 UTC.
Position N 01°54' E 102°24'.

Length 254 m; draft 9.3 m.

Type: Ship. MMSI: 636016512.

Date/timePositionNaut miles runAvg speedWind from/ knotsBaromVisibWave heightAir tempDewpointWater temp
2015-Jan-21 10:29N 01°54' E 102°24'1615.8
2015-Jan-21 09:27N 01°46' E 102°38'7410.1
2015-Jan-21 02:08N 01°16' E 103°46'0 0.1
2015-Jan-21 01:25N 01°16' E 103°46'0 0.0
2015-Jan-21 00:31N 01°16' E 103°46'0 0.0
2015-Jan-20 23:15N 01°16' E 103°46'0 0.1
2015-Jan-20 22:25N 01°16' E 103°46'0 0.3
2015-Jan-20 21:34N 01°16' E 103°46'4 3.9
2015-Jan-20 20:33N 01°13' E 103°48'9 8.5
2015-Jan-20 19:33N 01°15' E 103°57'1413.6
2015-Jan-20 18:33N 01°17' E 104°10'  
2015-Jan-16 15:23N 21°53' E 113°53'1112.6
2015-Jan-16 14:32N 22°03' E 113°50'1212.0
2015-Jan-16 13:33N 22°15' E 113°48'1414.2
2015-Jan-16 12:33N 22°29' E 113°45'7 1.0
2015-Jan-16 05:14N 22°36' E 113°43'913.7
2015-Jan-16 04:33N 22°27' E 113°45'1414.3
2015-Jan-16 03:33N 22°13' E 113°48'10 9.5
2015-Jan-16 02:33N 22°03' E 113°51'9 7.5
2015-Jan-16 01:24N 21°58' E 113°58'2312.6
2015-Jan-15 23:33N 21°59' E 114°23'1813.3
2015-Jan-15 22:14N 22°03' E 114°41'22812.9
2015-Jan-15 04:32N 23°49' E 118°21'1313.1
2015-Jan-15 03:33N 23°57' E 118°32'3013.4
2015-Jan-15 01:20N 24°18' E 118°55'1513.2
2015-Jan-15 00:13N 24°27' E 119°08'913.4
2015-Jan-14 23:33N 24°33' E 119°16'33513.3
2015-Jan-13 22:28N 29°19' E 122°30'1415.1
2015-Jan-13 21:32N 29°33' E 122°29'1413.4
2015-Jan-13 20:31N 29°44' E 122°20'1010.2
2015-Jan-13 19:33N 29°51' E 122°12'8 7.7
2015-Jan-13 18:33N 29°53' E 122°04'0 0.1
2015-Jan-13 17:18N 29°53' E 122°04'0 0.0
2015-Jan-13 15:17N 29°53' E 122°04'0 0.0
2015-Jan-13 13:22N 29°53' E 122°04'0 0.1
2015-Jan-13 12:33N 29°53' E 122°04'0 0.0
2015-Jan-13 09:21N 29°53' E 122°04'0 0.6
2015-Jan-13 08:33N 29°54' E 122°04'6 6.2
2015-Jan-13 07:33N 29°55' E 122°11'5 5.1
2015-Jan-13 06:33N 29°50' E 122°13'9 8.5
2015-Jan-13 05:32N 29°45' E 122°21'4 0.7
2015-Jan-12 23:27N 29°44' E 122°26'0 0.0
2015-Jan-12 19:32N 29°44' E 122°26'1110.7
2015-Jan-12 18:32N 29°48' E 122°38'1412.4
2015-Jan-12 17:26N 29°55' E 122°51'4510.4
2015-Jan-12 13:09N 30°39' E 122°57'912.7
2015-Jan-12 12:29N 30°47' E 122°52'3210.8
2015-Jan-12 09:34N 31°06' E 122°23'1414.4
2015-Jan-12 08:34N 31°12' E 122°08'1414.4
2015-Jan-12 07:33N 31°16' E 121°52'1312.7
2015-Jan-12 06:33N 31°22' E 121°38'3 2.6
2015-Jan-12 05:30N 31°22' E 121°35'0 0.0
2015-Jan-12 04:31N 31°22' E 121°35'0 0.0
2015-Jan-12 03:32N 31°22' E 121°35'0 0.0
2015-Jan-12 02:26N 31°22' E 121°35'0 0.0
2015-Jan-12 01:32N 31°22' E 121°35'0 0.0
2015-Jan-12 00:32N 31°22' E 121°35'0 0.0
2015-Jan-11 23:31N 31°22' E 121°35'0 0.0
2015-Jan-11 22:31N 31°22' E 121°35'0 0.0
2015-Jan-11 21:33N 31°22' E 121°35'0 0.0
2015-Jan-11 20:33N 31°22' E 121°35'0 0.0
2015-Jan-11 19:33N 31°22' E 121°35'0 0.0
2015-Jan-11 18:33N 31°22' E 121°35'3 2.7
2015-Jan-11 17:33N 31°22' E 121°38'1110.6
2015-Jan-11 16:33N 31°17' E 121°49'1211.8
2015-Jan-11 15:34N 31°14' E 122°03'1414.2
2015-Jan-11 14:33N 31°07' E 122°17'1211.6
2015-Jan-11 13:32N 31°07' E 122°31'6 2.5
2015-Jan-11 11:13N 31°08' E 122°37'  
Track history (hours):
 
Tides and Currents Weather Stations Pressure Air Temp Water Temp Dewpoint Dewpoint Depression Visibility Wind Speed Wind Dir Waves Ship Positions

Zim Pacific

Last reported at 2015-Jan-21 10:29 UTC. Time now 2015-Jan-25 14:18 UTC.
Position N 01°54' E 102°24'.

Length 254 m; draft 9.3 m.

Type: Ship. MMSI: 636016512.

Date/timePositionNaut miles runAvg speedWind from/ knotsBaromVisibWave heightAir tempDewpointWater temp
2015-Jan-21 10:29N 01°54' E 102°24'1615.8
2015-Jan-21 09:27N 01°46' E 102°38'7410.1
2015-Jan-21 02:08N 01°16' E 103°46'0 0.1
2015-Jan-21 01:25N 01°16' E 103°46'0 0.0
2015-Jan-21 00:31N 01°16' E 103°46'0 0.0
2015-Jan-20 23:15N 01°16' E 103°46'0 0.1
2015-Jan-20 22:25N 01°16' E 103°46'0 0.3
2015-Jan-20 21:34N 01°16' E 103°46'4 3.9
2015-Jan-20 20:33N 01°13' E 103°48'9 8.5
2015-Jan-20 19:33N 01°15' E 103°57'1413.6
2015-Jan-20 18:33N 01°17' E 104°10'  
2015-Jan-16 15:23N 21°53' E 113°53'1112.6
2015-Jan-16 14:32N 22°03' E 113°50'1212.0
2015-Jan-16 13:33N 22°15' E 113°48'1414.2
2015-Jan-16 12:33N 22°29' E 113°45'7 1.0
2015-Jan-16 05:14N 22°36' E 113°43'913.7
2015-Jan-16 04:33N 22°27' E 113°45'1414.3
2015-Jan-16 03:33N 22°13' E 113°48'10 9.5
2015-Jan-16 02:33N 22°03' E 113°51'9 7.5
2015-Jan-16 01:24N 21°58' E 113°58'2312.6
2015-Jan-15 23:33N 21°59' E 114°23'1813.3
2015-Jan-15 22:14N 22°03' E 114°41'22812.9
2015-Jan-15 04:32N 23°49' E 118°21'1313.1
2015-Jan-15 03:33N 23°57' E 118°32'3013.4
2015-Jan-15 01:20N 24°18' E 118°55'1513.2
2015-Jan-15 00:13N 24°27' E 119°08'913.4
2015-Jan-14 23:33N 24°33' E 119°16'33513.3
2015-Jan-13 22:28N 29°19' E 122°30'1415.1
2015-Jan-13 21:32N 29°33' E 122°29'1413.4
2015-Jan-13 20:31N 29°44' E 122°20'1010.2
2015-Jan-13 19:33N 29°51' E 122°12'8 7.7
2015-Jan-13 18:33N 29°53' E 122°04'0 0.1
2015-Jan-13 17:18N 29°53' E 122°04'0 0.0
2015-Jan-13 15:17N 29°53' E 122°04'0 0.0
2015-Jan-13 13:22N 29°53' E 122°04'0 0.1
2015-Jan-13 12:33N 29°53' E 122°04'0 0.0
2015-Jan-13 09:21N 29°53' E 122°04'0 0.6
2015-Jan-13 08:33N 29°54' E 122°04'6 6.2
2015-Jan-13 07:33N 29°55' E 122°11'5 5.1
2015-Jan-13 06:33N 29°50' E 122°13'9 8.5
2015-Jan-13 05:32N 29°45' E 122°21'4 0.7
2015-Jan-12 23:27N 29°44' E 122°26'0 0.0
2015-Jan-12 19:32N 29°44' E 122°26'1110.7
2015-Jan-12 18:32N 29°48' E 122°38'1412.4
2015-Jan-12 17:26N 29°55' E 122°51'4510.4
2015-Jan-12 13:09N 30°39' E 122°57'912.7
2015-Jan-12 12:29N 30°47' E 122°52'3210.8
2015-Jan-12 09:34N 31°06' E 122°23'1414.4
2015-Jan-12 08:34N 31°12' E 122°08'1414.4
2015-Jan-12 07:33N 31°16' E 121°52'1312.7
2015-Jan-12 06:33N 31°22' E 121°38'3 2.6
2015-Jan-12 05:30N 31°22' E 121°35'0 0.0
2015-Jan-12 04:31N 31°22' E 121°35'0 0.0
2015-Jan-12 03:32N 31°22' E 121°35'0 0.0
2015-Jan-12 02:26N 31°22' E 121°35'0 0.0
2015-Jan-12 01:32N 31°22' E 121°35'0 0.0
2015-Jan-12 00:32N 31°22' E 121°35'0 0.0
2015-Jan-11 23:31N 31°22' E 121°35'0 0.0
2015-Jan-11 22:31N 31°22' E 121°35'0 0.0
2015-Jan-11 21:33N 31°22' E 121°35'0 0.0
2015-Jan-11 20:33N 31°22' E 121°35'0 0.0
2015-Jan-11 19:33N 31°22' E 121°35'0 0.0
2015-Jan-11 18:33N 31°22' E 121°35'3 2.7
2015-Jan-11 17:33N 31°22' E 121°38'1110.6
2015-Jan-11 16:33N 31°17' E 121°49'1211.8
2015-Jan-11 15:34N 31°14' E 122°03'1414.2
2015-Jan-11 14:33N 31°07' E 122°17'1211.6
2015-Jan-11 13:32N 31°07' E 122°31'6 2.5
2015-Jan-11 11:13N 31°08' E 122°37'  

Dump ship's entire track history